createdAt,value
2022-08-09T00:00:06.326Z,1.27
2022-08-09T00:04:03.692Z,1.47
2022-08-09T00:06:34.042Z,1.40
2022-08-09T00:09:39.957Z,1.30
2022-08-09T00:12:42.724Z,1.33
2022-08-09T00:15:58.630Z,1.37
2022-08-09T00:19:02.634Z,1.50
2022-08-09T00:22:12.081Z,1.70
2022-08-09T00:25:23.386Z,1.23
2022-08-09T00:28:40.769Z,1.40
2022-08-09T00:31:59.060Z,1.50
2022-08-09T00:35:03.406Z,1.63
2022-08-09T00:38:06.169Z,1.40
2022-08-09T00:41:11.421Z,1.53
2022-08-09T00:44:34.758Z,1.40
2022-08-09T00:47:40.388Z,1.23
2022-08-09T00:50:44.306Z,1.50
2022-08-09T00:53:54.959Z,1.30
2022-08-09T00:57:00.324Z,1.37
2022-08-09T01:00:22.068Z,1.30
2022-08-09T01:03:32.825Z,1.40
2022-08-09T01:06:54.448Z,1.57
2022-08-09T01:10:04.845Z,1.53
2022-08-09T01:13:19.030Z,1.30
2022-08-09T01:16:30.961Z,1.80
2022-08-09T01:19:57.264Z,1.60
2022-08-09T01:24:01.902Z,1.67
2022-08-09T01:26:53.724Z,1.70
2022-08-09T01:30:00.990Z,1.60
2022-08-09T01:33:07.223Z,1.70
2022-08-09T01:36:15.816Z,1.53
2022-08-09T01:39:23.285Z,1.40
2022-08-09T01:42:29.785Z,1.73
2022-08-09T01:45:33.678Z,1.50
2022-08-09T01:48:40.966Z,1.80
2022-08-09T01:51:53.933Z,1.83
2022-08-09T01:54:59.392Z,1.50
2022-08-09T01:58:06.503Z,1.70
2022-08-09T02:01:11.499Z,1.63
2022-08-09T02:04:22.970Z,1.67
2022-08-09T02:08:41.402Z,1.70
2022-08-09T02:10:55.718Z,1.80
2022-08-09T02:14:06.979Z,1.90
2022-08-09T02:17:55.087Z,1.60
2022-08-09T02:20:41.291Z,1.70
2022-08-09T02:23:54.525Z,1.80
2022-08-09T02:27:03.047Z,1.63
2022-08-09T02:30:12.143Z,1.63
2022-08-09T02:33:19.027Z,1.77
2022-08-09T02:36:32.931Z,1.80
2022-08-09T02:39:41.783Z,1.63
2022-08-09T02:42:51.183Z,2.00
2022-08-09T02:45:56.470Z,1.80
2022-08-09T02:49:03.662Z,1.70
2022-08-09T02:52:09.121Z,1.77
2022-08-09T02:55:20.623Z,1.80
2022-08-09T02:58:36.475Z,2.10
2022-08-09T03:02:05.561Z,1.73
2022-08-09T03:05:09.103Z,1.70
2022-08-09T03:08:22.103Z,2.10
2022-08-09T03:12:04.158Z,1.57
2022-08-09T03:14:51.671Z,2.03
2022-08-09T03:22:41.441Z,1.77
2022-08-09T03:26:02.162Z,1.80
2022-08-09T03:29:09.672Z,1.83
2022-08-09T03:32:18.357Z,1.60
2022-08-09T03:35:44.050Z,1.80
2022-08-09T03:38:46.759Z,1.60
2022-08-09T03:41:49.887Z,1.67
2022-08-09T03:45:10.118Z,2.07
2022-08-09T03:48:19.020Z,1.80
2022-08-09T03:51:55.587Z,1.97
2022-08-09T03:54:58.545Z,1.70
2022-08-09T03:58:06.670Z,1.97
2022-08-09T04:01:18.029Z,1.90
2022-08-09T04:04:24.708Z,1.90
2022-08-09T04:07:47.743Z,2.20
2022-08-09T04:10:53.675Z,2.13
2022-08-09T04:14:52.994Z,2.10
2022-08-09T04:17:20.508Z,2.40
2022-08-09T04:20:24.103Z,1.70
2022-08-09T04:23:28.712Z,1.90
2022-08-09T04:26:35.306Z,2.10
2022-08-09T04:29:50.165Z,1.93
2022-08-09T04:32:54.972Z,2.03
2022-08-09T04:35:58.653Z,1.80
2022-08-09T04:39:03.236Z,2.10
2022-08-09T04:42:09.392Z,2.40
2022-08-09T04:45:13.649Z,2.10
2022-08-09T04:48:18.176Z,2.43
2022-08-09T04:51:21.300Z,2.43
2022-08-09T04:54:25.766Z,2.23
2022-08-09T04:57:58.987Z,2.40
2022-08-09T05:00:54.437Z,2.23
2022-08-09T05:03:58.701Z,2.30
2022-08-09T05:07:05.818Z,2.20
2022-08-09T05:10:09.591Z,2.10
2022-08-09T05:13:14.538Z,2.10
2022-08-09T05:16:17.350Z,2.30
2022-08-09T05:19:25.555Z,1.90
2022-08-09T05:22:34.980Z,2.13
2022-08-09T05:25:52.356Z,2.00
2022-08-09T05:28:57.267Z,1.90
2022-08-09T05:32:01.136Z,1.90
2022-08-09T05:35:04.419Z,2.53
2022-08-09T05:38:07.224Z,2.00
2022-08-09T05:41:12.789Z,2.00
2022-08-09T05:44:17.386Z,2.10
2022-08-09T05:47:27.076Z,1.80
2022-08-09T05:50:50.615Z,1.83
2022-08-09T05:53:57.657Z,2.00
2022-08-09T05:57:00.920Z,2.27
2022-08-09T06:00:07.698Z,2.20
2022-08-09T06:03:11.087Z,2.00
2022-08-09T06:06:23.341Z,1.90
2022-08-09T06:09:54.445Z,2.00
2022-08-09T06:12:57.763Z,2.00
2022-08-09T06:16:08.037Z,2.70
2022-08-09T06:19:10.835Z,2.60
2022-08-09T06:22:15.612Z,2.33
2022-08-09T06:25:18.656Z,2.30
2022-08-09T06:28:31.889Z,2.53
2022-08-09T06:31:40.405Z,2.43
2022-08-09T06:35:00.499Z,3.03
2022-08-09T06:38:05.507Z,3.27
2022-08-09T06:41:19.083Z,3.43
2022-08-09T06:44:22.493Z,3.90
2022-08-09T06:47:39.421Z,3.47
2022-08-09T06:50:44.811Z,3.33
2022-08-09T06:53:49.817Z,4.20
2022-08-09T06:56:52.717Z,4.30
2022-08-09T07:00:50.318Z,4.60
2022-08-09T07:03:20.021Z,4.40
2022-08-09T07:06:31.007Z,3.70
2022-08-09T07:09:57.215Z,3.80
2022-08-09T07:12:58.334Z,3.00
2022-08-09T07:16:41.317Z,3.27
2022-08-09T07:19:25.630Z,2.87
2022-08-09T07:22:43.781Z,2.60
2022-08-09T07:26:02.179Z,2.87
2022-08-09T07:29:12.253Z,2.70
2022-08-09T07:32:16.638Z,1.83
2022-08-09T07:35:21.142Z,2.30
2022-08-09T07:38:25.431Z,1.90
2022-08-09T07:41:38.646Z,2.10
2022-08-09T07:44:52.494Z,1.97
2022-08-09T07:48:01.652Z,1.47
2022-08-09T07:52:04.588Z,1.60
2022-08-09T07:54:32.748Z,1.50
2022-08-09T07:57:35.973Z,1.60
2022-08-09T08:00:49.290Z,1.60
2022-08-09T08:03:58.955Z,1.97
2022-08-09T08:07:15.488Z,1.77
2022-08-09T08:10:27.920Z,1.60
2022-08-09T08:13:38.202Z,1.50
2022-08-09T08:17:07.593Z,1.70
2022-08-09T08:20:12.905Z,1.80
2022-08-09T08:23:18.713Z,1.70
2022-08-09T08:26:42.160Z,1.67
2022-08-09T08:29:48.549Z,1.80
2022-08-09T08:32:54.094Z,1.63
2022-08-09T08:36:00.458Z,1.70
2022-08-09T08:39:14.135Z,1.70
2022-08-09T08:42:32.141Z,1.50
2022-08-09T08:45:50.782Z,1.73
2022-08-09T08:48:57.820Z,1.60
2022-08-09T08:52:04.255Z,1.60
2022-08-09T08:55:19.102Z,1.70
2022-08-09T08:58:29.567Z,1.60
2022-08-09T09:01:45.063Z,1.70
2022-08-09T09:04:57.526Z,1.77
2022-08-09T09:08:07.444Z,1.70
2022-08-09T09:11:33.798Z,1.63
2022-08-09T09:14:41.268Z,1.60
2022-08-09T09:17:49.538Z,1.60
2022-08-09T09:20:56.009Z,1.70
2022-08-09T09:24:10.255Z,1.63
2022-08-09T09:28:04.396Z,1.50
2022-08-09T09:30:55.711Z,1.50
2022-08-09T09:34:14.451Z,1.70
2022-08-09T09:37:31.631Z,1.50
2022-08-09T09:40:46.160Z,1.80
2022-08-09T09:44:11.437Z,2.00
2022-08-09T09:47:21.414Z,1.60
2022-08-09T09:50:49.643Z,1.80
2022-08-09T09:54:17.854Z,1.50
2022-08-09T09:58:02.377Z,1.70
2022-08-09T10:00:55.931Z,1.60
2022-08-09T10:04:04.357Z,1.53
2022-08-09T10:07:24.230Z,1.40
2022-08-09T10:10:31.520Z,1.60
2022-08-09T10:13:43.358Z,1.70
2022-08-09T10:16:56.852Z,1.47
2022-08-09T10:20:06.018Z,1.50
2022-08-09T10:23:21.948Z,1.40
2022-08-09T10:26:26.742Z,1.57
2022-08-09T10:30:28.308Z,1.80
2022-08-09T10:32:56.139Z,1.40
2022-08-09T10:36:00.984Z,1.53
2022-08-09T10:39:15.575Z,1.50
2022-08-09T10:42:26.804Z,1.37
2022-08-09T10:45:35.682Z,1.60
2022-08-09T10:48:59.846Z,1.20
2022-08-09T10:52:13.572Z,1.10
2022-08-09T10:55:25.960Z,1.50
2022-08-09T10:58:33.439Z,1.23
2022-08-09T11:03:14.335Z,1.40
2022-08-09T11:05:25.116Z,1.43
2022-08-09T11:08:47.596Z,1.30
2022-08-09T11:12:11.675Z,1.33
2022-08-09T11:15:33.946Z,1.40
2022-08-09T11:18:45.848Z,1.60
2022-08-09T11:22:10.586Z,1.40
2022-08-09T11:25:25.919Z,1.30
2022-08-09T11:28:54.033Z,1.40
2022-08-09T11:32:08.071Z,1.20
2022-08-09T11:35:16.889Z,1.50
2022-08-09T11:38:32.017Z,1.43
2022-08-09T11:41:37.866Z,1.37
2022-08-09T11:44:55.405Z,1.53
2022-08-09T11:48:06.501Z,1.33
2022-08-09T11:52:48.797Z,1.30
2022-08-09T11:54:39.908Z,1.40
2022-08-09T11:57:59.743Z,1.20
2022-08-09T12:01:08.700Z,1.00
2022-08-09T12:04:23.917Z,1.23
2022-08-09T12:07:41.503Z,1.20
2022-08-09T12:10:48.701Z,1.23
2022-08-09T12:14:07.397Z,1.43
2022-08-09T12:17:33.774Z,1.35
2022-08-09T12:20:43.699Z,1.17
2022-08-09T12:24:09.107Z,1.30
2022-08-09T12:29:10.224Z,1.40
2022-08-09T12:30:44.368Z,1.40
2022-08-09T12:33:58.492Z,1.40
2022-08-09T12:37:21.549Z,1.33
2022-08-09T12:40:28.467Z,1.08
2022-08-09T12:44:04.853Z,1.38
2022-08-09T12:46:58.583Z,1.23
2022-08-09T12:50:25.173Z,1.30
2022-08-09T12:53:37.610Z,1.50
2022-08-09T12:56:50.977Z,1.05
2022-08-09T13:00:12.435Z,1.20
2022-08-09T13:03:24.541Z,1.23
2022-08-09T13:06:42.727Z,1.40
2022-08-09T13:09:55.433Z,1.45
2022-08-09T13:13:10.924Z,1.20
2022-08-09T13:16:17.613Z,1.25
2022-08-09T13:20:06.808Z,1.20
2022-08-09T13:23:05.481Z,0.70
2022-08-09T13:26:13.331Z,1.30
2022-08-09T13:29:18.751Z,1.30
2022-08-09T13:32:26.379Z,0.82
2022-08-09T13:35:34.472Z,1.25
2022-08-09T13:38:59.126Z,1.40
2022-08-09T13:42:11.977Z,1.17
2022-08-09T13:45:15.829Z,1.30
2022-08-09T13:48:21.648Z,1.90
2022-08-09T13:51:27.592Z,1.30
2022-08-09T13:54:30.493Z,1.48
2022-08-09T13:57:39.307Z,1.40
2022-08-09T14:00:48.223Z,1.67
2022-08-09T14:04:01.313Z,1.35
2022-08-09T14:07:06.793Z,1.30
2022-08-09T14:10:17.557Z,1.45
2022-08-09T14:14:15.175Z,1.30
2022-08-09T14:16:59.708Z,1.50
2022-08-09T14:20:07.561Z,1.30
2022-08-09T14:23:10.329Z,1.35
2022-08-09T14:26:25.412Z,1.23
2022-08-09T14:30:35.034Z,1.40
2022-08-09T14:32:57.857Z,1.25
2022-08-09T14:36:17.625Z,1.30
2022-08-09T14:39:40.082Z,0.80
2022-08-09T14:42:47.013Z,1.55
2022-08-09T14:46:51.367Z,1.40
2022-08-09T14:49:13.959Z,1.30
2022-08-09T14:52:20.627Z,0.93
2022-08-09T14:55:31.938Z,1.05
2022-08-09T14:58:37.886Z,1.50
2022-08-09T15:01:47.033Z,1.30
2022-08-09T15:04:50.572Z,1.52
2022-08-09T15:07:56.817Z,1.50
2022-08-09T15:11:05.022Z,1.20
2022-08-09T15:14:13.457Z,1.50
2022-08-09T15:17:16.984Z,0.82
2022-08-09T15:21:55.524Z,0.75
2022-08-09T15:24:01.946Z,1.58
2022-08-09T15:27:07.747Z,1.10
2022-08-09T15:30:48.279Z,1.40
2022-08-09T15:34:31.718Z,1.38
2022-08-09T15:37:37.248Z,1.30
2022-08-09T15:40:48.930Z,1.60
2022-08-09T15:43:51.675Z,1.30
2022-08-09T15:46:57.929Z,1.60
2022-08-09T15:50:04.671Z,1.58
2022-08-09T15:53:32.713Z,1.30
2022-08-09T15:56:32.406Z,1.70
2022-08-09T15:59:36.783Z,1.30
2022-08-09T16:02:40.893Z,2.08
2022-08-09T16:05:53.267Z,1.65
2022-08-09T16:09:01.283Z,1.60
2022-08-09T16:12:11.577Z,1.15
2022-08-09T16:16:11.469Z,1.48
2022-08-09T16:18:37.626Z,1.40
2022-08-09T16:21:51.982Z,1.50
2022-08-09T16:24:59.523Z,1.50
2022-08-09T16:28:05.842Z,1.67
2022-08-09T16:31:15.983Z,1.20
2022-08-09T16:34:19.079Z,1.63
2022-08-09T16:37:55.380Z,1.63
2022-08-09T16:40:49.457Z,1.65
2022-08-09T16:43:55.668Z,2.00
2022-08-09T16:47:03.882Z,1.77
2022-08-09T16:50:31.462Z,1.60
2022-08-09T16:53:36.777Z,1.52
2022-08-09T16:56:42.694Z,1.67
2022-08-09T16:59:57.500Z,1.55
2022-08-09T17:03:00.709Z,1.55
2022-08-09T17:06:28.866Z,1.60
2022-08-09T17:09:44.879Z,1.73
2022-08-09T17:12:49.593Z,2.00
2022-08-09T17:15:59.760Z,2.15
2022-08-09T17:19:03.375Z,2.17
2022-08-09T17:22:08.086Z,1.50
2022-08-09T17:25:13.447Z,1.60
2022-08-09T17:28:16.690Z,1.83
2022-08-09T17:31:24.029Z,1.70
2022-08-09T17:35:00.578Z,1.60
2022-08-09T17:38:11.244Z,2.05
2022-08-09T17:41:18.497Z,1.83
2022-08-09T17:44:38.879Z,1.52
2022-08-09T17:47:49.667Z,1.70
2022-08-09T17:50:59.522Z,1.42
2022-08-09T17:54:12.639Z,1.90
2022-08-09T17:58:02.230Z,1.55
2022-08-09T18:00:46.570Z,1.60
2022-08-09T18:03:54.505Z,1.70
2022-08-09T18:06:57.596Z,1.60
2022-08-09T18:10:04.696Z,1.60
2022-08-09T18:13:43.271Z,1.80
2022-08-09T18:16:32.137Z,1.80
2022-08-09T18:20:59.748Z,1.50
2022-08-09T18:22:59.798Z,1.77
2022-08-09T18:26:08.119Z,1.67
2022-08-09T18:30:35.655Z,2.30
2022-08-09T18:32:36.708Z,2.60
2022-08-09T18:35:58.599Z,2.30
2022-08-09T18:39:03.310Z,1.97
2022-08-09T18:42:08.993Z,2.27
2022-08-09T18:45:21.782Z,2.10
2022-08-09T18:48:35.051Z,2.23
2022-08-09T18:51:55.318Z,2.43
2022-08-09T18:55:00.635Z,2.20
2022-08-09T18:58:03.458Z,2.20
2022-08-09T19:01:06.691Z,2.13
2022-08-09T19:04:10.933Z,2.77
2022-08-09T19:07:16.291Z,2.30
2022-08-09T19:10:19.514Z,2.20
2022-08-09T19:13:38.538Z,1.97
2022-08-09T19:16:50.091Z,2.13
2022-08-09T19:19:58.897Z,2.20
2022-08-09T19:23:06.507Z,2.53
2022-08-09T19:26:09.882Z,2.27
2022-08-09T19:29:18.216Z,2.63
2022-08-09T19:32:29.531Z,2.60
2022-08-09T19:35:57.476Z,2.10
2022-08-09T19:38:58.673Z,2.63
2022-08-09T19:42:06.838Z,2.83
2022-08-09T19:45:11.326Z,2.53
2022-08-09T19:48:14.048Z,2.50
2022-08-09T19:51:16.836Z,2.23
2022-08-09T19:54:22.202Z,2.30
2022-08-09T19:57:28.879Z,2.60
2022-08-09T20:00:31.907Z,2.63
2022-08-09T20:04:18.428Z,2.37
2022-08-09T20:06:58.136Z,2.77
2022-08-09T20:10:06.536Z,3.33
2022-08-09T20:13:10.406Z,2.63
2022-08-09T20:16:37.228Z,2.60
2022-08-09T20:19:47.595Z,2.73
2022-08-09T20:22:56.718Z,2.80
2022-08-09T20:26:00.825Z,2.63
2022-08-09T20:29:18.697Z,2.33
2022-08-09T20:32:33.513Z,2.20
2022-08-09T20:35:36.816Z,2.00
2022-08-09T20:39:18.721Z,2.03
2022-08-09T20:42:04.472Z,2.10
2022-08-09T20:45:59.070Z,2.03
2022-08-09T20:48:32.111Z,2.07
2022-08-09T20:51:41.188Z,1.80
2022-08-09T20:54:52.783Z,2.10
2022-08-09T20:58:08.513Z,1.97
2022-08-09T21:01:34.012Z,2.00
2022-08-09T21:05:57.316Z,2.20
2022-08-09T21:08:09.185Z,2.10
2022-08-09T21:14:40.638Z,2.30
2022-08-09T21:18:21.069Z,2.73
2022-08-09T21:21:17.677Z,2.23
2022-08-09T21:24:28.623Z,2.13
2022-08-09T21:27:50.982Z,2.40
2022-08-09T21:30:56.431Z,2.23
2022-08-09T21:34:00.836Z,2.40
2022-08-09T21:37:18.499Z,2.23
2022-08-09T21:40:30.295Z,2.50
2022-08-09T21:43:56.013Z,2.17
2022-08-09T21:46:58.854Z,2.17
2022-08-09T21:50:02.212Z,2.40
2022-08-09T21:53:07.032Z,2.60
2022-08-09T21:56:28.390Z,2.30
2022-08-09T21:59:46.116Z,2.00
2022-08-09T22:02:58.934Z,2.23
2022-08-09T22:06:03.357Z,2.40
2022-08-09T22:09:11.081Z,2.23
2022-08-09T22:12:18.672Z,2.10
2022-08-09T22:15:34.741Z,2.20
2022-08-09T22:18:53.452Z,2.20
2022-08-09T22:21:57.551Z,2.00
2022-08-09T22:26:07.259Z,2.30
2022-08-09T22:28:32.471Z,2.47
2022-08-09T22:31:37.236Z,2.37
2022-08-09T22:34:41.946Z,2.10
2022-08-09T22:37:44.979Z,2.30
2022-08-09T22:40:49.049Z,2.53
2022-08-09T22:44:03.107Z,2.40
2022-08-09T22:48:15.100Z,2.47
2022-08-09T22:50:33.481Z,2.53
2022-08-09T22:53:58.131Z,2.50
2022-08-09T22:56:59.172Z,2.30
2022-08-09T23:00:02.330Z,2.57
2022-08-09T23:03:12.830Z,2.20
2022-08-09T23:06:35.025Z,2.63
2022-08-09T23:09:38.099Z,2.20
2022-08-09T23:12:41.574Z,2.20
2022-08-09T23:15:44.291Z,2.10
2022-08-09T23:19:06.118Z,2.33
2022-08-09T23:22:10.559Z,2.10
2022-08-09T23:25:13.780Z,2.40
2022-08-09T23:28:17.978Z,2.30
2022-08-09T23:31:20.692Z,2.50
2022-08-09T23:34:23.536Z,2.73
2022-08-09T23:37:27.638Z,2.47
2022-08-09T23:40:30.903Z,2.47
2022-08-09T23:43:33.739Z,2.37
2022-08-09T23:46:36.589Z,2.60
2022-08-09T23:49:39.533Z,2.50
2022-08-09T23:52:43.650Z,2.27
2022-08-09T23:55:49.718Z,2.40
2022-08-09T23:58:57.595Z,2.43
